createdAt,value
2019-03-08T00:00:54.529Z,57.00
2019-03-08T00:02:01.789Z,57.00
2019-03-08T00:03:08.964Z,57.00
2019-03-08T00:04:16.181Z,57.00
2019-03-08T00:05:23.523Z,57.00
2019-03-08T00:06:30.699Z,57.00
2019-03-08T00:07:37.901Z,57.00
2019-03-08T00:08:45.440Z,57.00
2019-03-08T00:09:52.916Z,57.00
2019-03-08T00:11:00.025Z,57.10
2019-03-08T00:12:07.200Z,57.10
2019-03-08T00:13:14.393Z,57.10
2019-03-08T00:14:21.554Z,57.20
2019-03-08T00:15:28.700Z,57.20
2019-03-08T00:16:36.487Z,57.20
2019-03-08T00:17:43.918Z,57.20
2019-03-08T00:18:51.260Z,57.30
2019-03-08T00:19:58.703Z,57.30
2019-03-08T00:21:06.630Z,57.30
2019-03-08T00:22:14.128Z,57.30
2019-03-08T00:23:21.693Z,57.30
2019-03-08T00:24:28.834Z,57.40
2019-03-08T00:25:37.507Z,57.30
2019-03-08T00:26:44.647Z,57.30
2019-03-08T00:27:51.805Z,57.30
2019-03-08T00:28:58.960Z,57.40
2019-03-08T00:30:07.348Z,57.40
2019-03-08T00:31:14.497Z,57.40
2019-03-08T00:32:21.642Z,57.40
2019-03-08T00:33:29.870Z,57.40
2019-03-08T00:34:37.987Z,57.50
2019-03-08T00:35:45.266Z,57.50
2019-03-08T00:36:52.425Z,57.50
2019-03-08T00:37:59.582Z,57.60
2019-03-08T00:39:08.531Z,57.70
2019-03-08T00:40:17.890Z,57.80
2019-03-08T00:41:25.064Z,57.80
2019-03-08T00:42:32.215Z,57.90
2019-03-08T00:43:39.389Z,58.00
2019-03-08T00:44:46.458Z,57.90
2019-03-08T00:45:53.630Z,57.90
2019-03-08T00:47:00.774Z,58.00
2019-03-08T00:48:08.920Z,58.00
2019-03-08T00:49:16.066Z,58.00
2019-03-08T00:50:23.211Z,58.10
2019-03-08T00:51:30.373Z,58.00
2019-03-08T00:52:37.526Z,58.10
2019-03-08T00:53:45.769Z,58.10
2019-03-08T00:54:52.849Z,58.10
2019-03-08T00:56:00.086Z,58.10
2019-03-08T00:57:07.269Z,58.10
2019-03-08T00:58:14.430Z,58.20
2019-03-08T00:59:21.577Z,58.20
2019-03-08T01:00:28.745Z,58.10
2019-03-08T01:01:35.966Z,58.10
2019-03-08T01:02:43.165Z,58.00
2019-03-08T01:03:50.335Z,57.90
2019-03-08T01:04:57.545Z,58.00
2019-03-08T01:06:04.791Z,58.00
2019-03-08T01:07:11.967Z,57.90
2019-03-08T01:08:19.131Z,57.90
2019-03-08T01:09:26.284Z,58.00
2019-03-08T01:10:33.442Z,58.10
2019-03-08T01:11:40.601Z,58.10
2019-03-08T01:12:47.766Z,58.10
2019-03-08T01:13:54.923Z,58.10
2019-03-08T01:15:02.070Z,58.20
2019-03-08T01:16:10.408Z,58.10
2019-03-08T01:17:17.553Z,58.20
2019-03-08T01:18:24.707Z,58.20
2019-03-08T01:19:31.869Z,58.20
2019-03-08T01:20:39.022Z,58.10
2019-03-08T01:21:46.164Z,58.20
2019-03-08T01:22:53.395Z,58.30
2019-03-08T01:24:01.037Z,58.30
2019-03-08T01:25:08.940Z,58.40
2019-03-08T01:26:16.270Z,58.90
2019-03-08T01:27:23.700Z,58.40
2019-03-08T01:28:32.369Z,58.50
2019-03-08T01:29:39.724Z,58.50
2019-03-08T01:30:47.454Z,58.50
2019-03-08T01:31:54.779Z,58.60
2019-03-08T01:33:03.951Z,58.60
2019-03-08T01:34:11.284Z,58.60
2019-03-08T01:35:19.819Z,58.50
2019-03-08T01:36:27.094Z,58.50
2019-03-08T01:37:34.181Z,58.40
2019-03-08T01:38:41.330Z,58.50
2019-03-08T01:39:48.524Z,58.50
2019-03-08T01:40:55.685Z,58.50
2019-03-08T01:42:03.156Z,58.50
2019-03-08T01:43:10.322Z,58.50
2019-03-08T01:44:17.475Z,58.50
2019-03-08T01:45:24.663Z,58.50
2019-03-08T01:46:31.800Z,58.60
2019-03-08T01:47:39.018Z,58.60
2019-03-08T01:48:46.729Z,58.50
2019-03-08T01:49:53.872Z,58.50
2019-03-08T01:51:01.038Z,58.50
2019-03-08T01:52:08.189Z,58.50
2019-03-08T01:53:15.352Z,59.20
2019-03-08T01:54:22.555Z,58.50
2019-03-08T01:55:29.695Z,58.50
2019-03-08T01:56:36.849Z,58.60
2019-03-08T01:57:44.000Z,58.50
2019-03-08T01:58:51.167Z,58.50
2019-03-08T01:59:58.311Z,58.60
2019-03-08T02:01:05.676Z,58.70
2019-03-08T02:02:12.908Z,58.70
2019-03-08T02:03:20.075Z,58.70
2019-03-08T02:04:27.280Z,58.70
2019-03-08T02:05:35.503Z,58.70
2019-03-08T02:06:43.001Z,58.80
2019-03-08T02:07:50.615Z,58.70
2019-03-08T02:08:57.757Z,59.30
2019-03-08T02:10:06.021Z,58.70
2019-03-08T02:11:13.193Z,59.40
2019-03-08T02:12:20.335Z,58.80
2019-03-08T02:13:27.491Z,58.80
2019-03-08T02:14:34.630Z,58.80
2019-03-08T02:15:43.418Z,58.90
2019-03-08T02:16:50.815Z,58.90
2019-03-08T02:17:57.985Z,59.10
2019-03-08T02:19:05.142Z,59.10
2019-03-08T02:20:16.674Z,59.10
2019-03-08T02:21:24.358Z,59.20
2019-03-08T02:22:31.548Z,59.30
2019-03-08T02:23:40.176Z,59.80
2019-03-08T02:24:47.328Z,59.30
2019-03-08T02:25:54.484Z,59.20
2019-03-08T02:27:01.647Z,59.30
2019-03-08T02:28:08.785Z,59.30
2019-03-08T02:29:15.948Z,59.30
2019-03-08T02:30:23.167Z,59.30
2019-03-08T02:31:30.367Z,59.30
2019-03-08T02:32:37.691Z,59.30
2019-03-08T02:33:44.856Z,59.30
2019-03-08T02:34:52.025Z,59.40
2019-03-08T02:35:59.716Z,59.40
2019-03-08T02:37:07.128Z,59.70
2019-03-08T02:38:14.576Z,59.80
2019-03-08T02:39:22.043Z,59.70
2019-03-08T02:40:35.619Z,59.70
2019-03-08T02:41:42.798Z,59.70
2019-03-08T02:42:49.959Z,59.90
2019-03-08T02:43:57.488Z,60.00
2019-03-08T02:45:05.632Z,60.00
2019-03-08T02:46:12.968Z,59.90
2019-03-08T02:47:20.465Z,60.00
2019-03-08T02:48:27.901Z,60.00
2019-03-08T02:49:35.345Z,60.10
2019-03-08T02:50:42.581Z,60.00
2019-03-08T02:51:49.924Z,60.10
2019-03-08T02:52:57.072Z,60.20
2019-03-08T02:54:05.455Z,60.10
2019-03-08T02:55:12.616Z,60.30
2019-03-08T02:56:19.812Z,60.10
2019-03-08T02:57:26.958Z,60.20
2019-03-08T02:58:34.102Z,60.30
2019-03-08T02:59:41.254Z,60.30
2019-03-08T03:00:48.824Z,60.20
2019-03-08T03:01:55.980Z,60.10
2019-03-08T03:03:03.154Z,60.00
2019-03-08T03:04:10.298Z,60.30
2019-03-08T03:05:17.666Z,60.10
2019-03-08T03:06:24.851Z,60.20
2019-03-08T03:07:32.030Z,61.00
2019-03-08T03:08:39.211Z,60.20
2019-03-08T03:09:46.578Z,60.20
2019-03-08T03:10:53.763Z,60.20
2019-03-08T03:12:00.915Z,60.30
2019-03-08T03:13:08.070Z,60.30
2019-03-08T03:14:15.213Z,60.20
2019-03-08T03:15:22.356Z,60.20
2019-03-08T03:16:29.521Z,60.10
2019-03-08T03:17:36.669Z,60.80
2019-03-08T03:18:43.852Z,60.00
2019-03-08T03:19:50.997Z,60.00
2019-03-08T03:20:58.160Z,60.00
2019-03-08T03:22:05.346Z,60.00
2019-03-08T03:23:12.510Z,60.10
2019-03-08T03:24:19.650Z,60.00
2019-03-08T03:25:26.807Z,60.00
2019-03-08T03:26:34.028Z,60.00
2019-03-08T03:27:41.219Z,60.00
2019-03-08T03:28:48.342Z,60.00
2019-03-08T03:29:55.488Z,60.00
2019-03-08T03:31:02.643Z,60.10
2019-03-08T03:32:09.819Z,60.10
2019-03-08T03:33:16.966Z,60.10
2019-03-08T03:34:24.109Z,60.10
2019-03-08T03:35:31.259Z,60.20
2019-03-08T03:36:38.990Z,60.20
2019-03-08T03:37:46.151Z,60.10
2019-03-08T03:38:53.292Z,60.10
2019-03-08T03:40:00.614Z,60.20
2019-03-08T03:41:07.754Z,60.20
2019-03-08T03:42:14.927Z,60.10
2019-03-08T03:43:22.069Z,60.30
2019-03-08T03:44:29.388Z,60.20
2019-03-08T03:45:36.810Z,60.30
2019-03-08T03:46:44.655Z,60.20
2019-03-08T03:47:52.101Z,60.20
2019-03-08T03:48:59.543Z,60.20
2019-03-08T03:50:08.747Z,60.10
2019-03-08T03:51:16.179Z,60.80
2019-03-08T03:52:23.327Z,60.10
2019-03-08T03:53:30.488Z,60.00
2019-03-08T03:54:37.662Z,59.90
2019-03-08T03:55:44.802Z,59.90
2019-03-08T03:56:53.548Z,60.00
2019-03-08T03:58:01.029Z,59.90
2019-03-08T03:59:08.171Z,60.00
2019-03-08T04:00:17.185Z,60.00
2019-03-08T04:01:30.891Z,59.80
2019-03-08T04:02:38.061Z,59.80
2019-03-08T04:03:45.246Z,59.80
2019-03-08T04:04:52.407Z,59.80
2019-03-08T04:05:59.571Z,59.70
2019-03-08T04:07:06.727Z,59.70
2019-03-08T04:08:13.896Z,59.70
2019-03-08T04:09:21.068Z,59.60
2019-03-08T04:10:28.228Z,59.60
2019-03-08T04:11:35.419Z,59.70
2019-03-08T04:12:42.578Z,59.70
2019-03-08T04:13:49.724Z,59.50
2019-03-08T04:14:56.875Z,59.60
2019-03-08T04:16:04.024Z,59.50
2019-03-08T04:17:11.223Z,59.50
2019-03-08T04:18:18.387Z,59.50
2019-03-08T04:19:25.525Z,59.60
2019-03-08T04:20:32.599Z,59.70
2019-03-08T04:21:40.007Z,59.70
2019-03-08T04:22:47.171Z,59.50
2019-03-08T04:23:54.335Z,59.50
2019-03-08T04:25:01.502Z,59.70
2019-03-08T04:26:08.720Z,59.70
2019-03-08T04:27:15.868Z,59.80
2019-03-08T04:28:23.026Z,59.80
2019-03-08T04:29:30.194Z,59.80
2019-03-08T04:30:37.346Z,59.80
2019-03-08T04:31:44.495Z,59.80
2019-03-08T04:32:51.697Z,59.80
2019-03-08T04:33:58.838Z,59.70
2019-03-08T04:35:07.030Z,60.20
2019-03-08T04:36:14.174Z,59.60
2019-03-08T04:37:21.322Z,59.50
2019-03-08T04:38:28.486Z,59.40
2019-03-08T04:39:35.674Z,59.40
2019-03-08T04:40:42.828Z,59.40
2019-03-08T04:41:49.978Z,59.40
2019-03-08T04:42:57.424Z,59.30
2019-03-08T04:44:04.599Z,59.20
2019-03-08T04:45:12.413Z,59.30
2019-03-08T04:46:19.581Z,59.30
2019-03-08T04:47:26.733Z,59.40
2019-03-08T04:48:33.919Z,59.30
2019-03-08T04:49:42.131Z,59.30
2019-03-08T04:50:49.276Z,59.40
2019-03-08T04:51:56.479Z,59.30
2019-03-08T04:53:03.822Z,59.40
2019-03-08T04:54:11.251Z,59.30
2019-03-08T04:55:18.682Z,59.30
2019-03-08T04:56:27.246Z,59.20
2019-03-08T04:57:35.255Z,59.30
2019-03-08T04:58:42.601Z,59.90
2019-03-08T04:59:49.773Z,59.30
2019-03-08T05:00:56.941Z,59.40
2019-03-08T05:02:04.105Z,59.20
2019-03-08T05:03:11.267Z,59.20
2019-03-08T05:04:18.411Z,59.20
2019-03-08T05:05:25.551Z,59.20
2019-03-08T05:06:32.698Z,59.10
2019-03-08T05:07:39.908Z,59.10
2019-03-08T05:08:47.063Z,59.00
2019-03-08T05:09:54.234Z,59.00
2019-03-08T05:11:01.383Z,58.90
2019-03-08T05:12:09.244Z,58.90
2019-03-08T05:13:16.403Z,59.00
2019-03-08T05:14:23.872Z,58.80
2019-03-08T05:15:31.168Z,58.70
2019-03-08T05:16:38.317Z,58.70
2019-03-08T05:17:46.010Z,58.70
2019-03-08T05:18:53.190Z,58.70
2019-03-08T05:20:00.326Z,58.60
2019-03-08T05:21:07.621Z,58.60
2019-03-08T05:22:14.767Z,58.70
2019-03-08T05:23:21.920Z,58.70
2019-03-08T05:24:29.084Z,58.70
2019-03-08T05:25:36.162Z,58.70
2019-03-08T05:26:43.326Z,58.70
2019-03-08T05:27:51.256Z,58.10
2019-03-08T05:28:58.351Z,58.70
2019-03-08T05:30:06.650Z,58.70
2019-03-08T05:31:13.851Z,58.60
2019-03-08T05:32:21.001Z,58.60
2019-03-08T05:33:28.162Z,58.60
2019-03-08T05:34:35.308Z,58.70
2019-03-08T05:35:42.457Z,58.70
2019-03-08T05:36:49.618Z,58.70
2019-03-08T05:37:56.790Z,58.80
2019-03-08T05:39:05.387Z,58.80
2019-03-08T05:40:12.854Z,58.80
2019-03-08T05:41:20.913Z,58.90
2019-03-08T05:42:27.991Z,58.80
2019-03-08T05:43:35.133Z,59.00
2019-03-08T05:44:42.283Z,59.00
2019-03-08T05:45:49.443Z,59.00
2019-03-08T05:46:56.610Z,59.10
2019-03-08T05:48:03.775Z,59.10
2019-03-08T05:49:10.933Z,59.10
2019-03-08T05:50:18.072Z,59.00
2019-03-08T05:51:25.138Z,59.10
2019-03-08T05:52:32.470Z,59.00
2019-03-08T05:53:40.990Z,59.20
2019-03-08T05:54:48.270Z,59.20
2019-03-08T05:55:55.696Z,59.30
2019-03-08T05:57:03.189Z,59.50
2019-03-08T05:58:10.413Z,59.60
2019-03-08T05:59:17.593Z,59.80
2019-03-08T06:00:31.971Z,59.80
2019-03-08T06:01:33.935Z,59.80
2019-03-08T06:02:41.103Z,60.00
2019-03-08T06:03:48.246Z,60.00
2019-03-08T06:04:55.402Z,60.20
2019-03-08T06:06:02.574Z,60.20
2019-03-08T06:07:09.721Z,60.20
2019-03-08T06:08:17.243Z,60.20
2019-03-08T06:09:24.390Z,60.20
2019-03-08T06:10:40.585Z,60.30
2019-03-08T06:11:47.755Z,60.50
2019-03-08T06:12:54.930Z,60.50
2019-03-08T06:14:02.089Z,60.50
2019-03-08T06:15:09.339Z,60.60
2019-03-08T06:16:16.418Z,60.70
2019-03-08T06:17:23.578Z,60.80
2019-03-08T06:18:30.742Z,60.80
2019-03-08T06:19:37.920Z,60.60
2019-03-08T06:20:45.089Z,60.60
2019-03-08T06:21:52.238Z,60.70
2019-03-08T06:22:59.406Z,60.70
2019-03-08T06:24:06.684Z,60.70
2019-03-08T06:25:13.843Z,60.70
2019-03-08T06:26:21.074Z,60.80
2019-03-08T06:27:28.224Z,61.50
2019-03-08T06:28:35.397Z,60.90
2019-03-08T06:29:42.575Z,60.90
2019-03-08T06:30:49.740Z,60.90
2019-03-08T06:31:56.896Z,60.80
2019-03-08T06:33:04.056Z,60.80
2019-03-08T06:34:11.222Z,60.90
2019-03-08T06:35:18.377Z,60.80
2019-03-08T06:36:26.646Z,60.80
2019-03-08T06:37:33.895Z,60.60
2019-03-08T06:38:41.075Z,60.70
2019-03-08T06:39:48.223Z,60.70
2019-03-08T06:40:55.379Z,60.70
2019-03-08T06:42:02.604Z,60.70
2019-03-08T06:43:09.786Z,60.70
2019-03-08T06:44:16.962Z,60.70
2019-03-08T06:45:24.223Z,60.80
2019-03-08T06:46:31.633Z,60.80
2019-03-08T06:47:38.897Z,60.80
2019-03-08T06:48:46.045Z,61.00
2019-03-08T06:49:53.275Z,61.00
2019-03-08T06:51:00.721Z,61.00
2019-03-08T06:52:08.050Z,61.10
2019-03-08T06:53:15.489Z,61.10
2019-03-08T06:54:22.861Z,61.20
2019-03-08T06:55:30.039Z,61.10
2019-03-08T06:56:37.353Z,61.00
2019-03-08T06:57:44.505Z,61.10
2019-03-08T06:58:57.261Z,61.10
2019-03-08T07:00:22.923Z,61.10
2019-03-08T07:01:33.984Z,61.10
2019-03-08T07:02:41.124Z,61.80
2019-03-08T07:03:48.625Z,60.90
2019-03-08T07:04:55.833Z,61.10
2019-03-08T07:06:03.168Z,60.80
2019-03-08T07:07:10.338Z,60.70
2019-03-08T07:08:17.515Z,60.60
2019-03-08T07:09:24.657Z,60.20
2019-03-08T07:10:32.099Z,60.20
2019-03-08T07:11:40.532Z,60.10
2019-03-08T07:12:47.998Z,60.10
2019-03-08T07:13:55.431Z,60.00
2019-03-08T07:15:04.463Z,59.90
2019-03-08T07:16:13.949Z,59.80
2019-03-08T07:17:21.838Z,59.90
2019-03-08T07:18:29.260Z,59.90
2019-03-08T07:19:40.913Z,59.90
2019-03-08T07:21:14.945Z,59.90
2019-03-08T07:22:40.128Z,59.90
2019-03-08T07:24:18.338Z,59.70
2019-03-08T07:25:50.957Z,59.70
2019-03-08T07:27:13.133Z,59.60
2019-03-08T07:28:41.228Z,59.50
2019-03-08T07:30:10.283Z,59.30
2019-03-08T07:31:48.512Z,59.20
2019-03-08T07:33:20.939Z,59.00
2019-03-08T07:34:42.806Z,59.10
2019-03-08T07:35:57.113Z,59.00
2019-03-08T07:37:25.526Z,58.70
2019-03-08T07:38:40.367Z,59.10
2019-03-08T07:39:54.713Z,59.10
2019-03-08T07:41:23.439Z,59.40
2019-03-08T07:42:56.183Z,59.10
2019-03-08T07:44:28.416Z,59.10
2019-03-08T07:46:00.549Z,59.10
2019-03-08T07:47:22.939Z,59.10
2019-03-08T07:48:49.006Z,59.10
2019-03-08T07:50:01.939Z,59.10
2019-03-08T07:51:31.366Z,59.10
2019-03-08T07:52:54.901Z,59.10
2019-03-08T07:54:15.059Z,59.00
2019-03-08T07:55:28.528Z,59.00
2019-03-08T07:56:45.603Z,58.90
2019-03-08T07:58:08.959Z,58.70
2019-03-08T07:59:32.649Z,58.50
2019-03-08T08:00:49.313Z,58.30
2019-03-08T08:02:06.545Z,58.10
2019-03-08T08:03:19.578Z,58.00
2019-03-08T08:04:35.834Z,57.70
2019-03-08T08:06:00.666Z,57.80
2019-03-08T08:07:22.863Z,57.90
2019-03-08T08:08:52.087Z,57.70
2019-03-08T08:10:18.193Z,57.80
2019-03-08T08:11:43.293Z,57.70
2019-03-08T08:13:05.698Z,57.60
2019-03-08T08:14:39.377Z,57.60
2019-03-08T08:16:04.704Z,57.50
2019-03-08T08:17:35.168Z,57.40
2019-03-08T08:19:11.769Z,57.50
2019-03-08T08:20:36.919Z,57.30
2019-03-08T08:22:02.967Z,57.30
2019-03-08T08:23:34.263Z,57.00
2019-03-08T08:24:43.953Z,57.00
2019-03-08T08:26:09.388Z,56.90
2019-03-08T08:27:35.425Z,56.80
2019-03-08T08:29:05.267Z,56.80
2019-03-08T08:30:31.585Z,56.80
2019-03-08T08:32:04.057Z,56.60
2019-03-08T08:33:29.141Z,56.30
2019-03-08T08:34:46.123Z,56.10
2019-03-08T08:36:21.503Z,56.00
2019-03-08T08:37:56.473Z,56.00
2019-03-08T08:39:20.077Z,56.10
2019-03-08T08:40:49.179Z,56.20
2019-03-08T08:42:19.290Z,56.20
2019-03-08T08:43:35.555Z,56.10
2019-03-08T08:44:53.184Z,56.20
2019-03-08T08:46:08.574Z,56.20
2019-03-08T08:47:33.366Z,56.20
2019-03-08T08:49:02.697Z,56.00
2019-03-08T08:50:29.218Z,55.80
2019-03-08T08:51:56.959Z,55.60
2019-03-08T08:53:32.354Z,55.30
2019-03-08T08:54:47.101Z,55.30
2019-03-08T08:56:17.353Z,54.90
2019-03-08T08:57:39.228Z,54.60
2019-03-08T08:58:59.307Z,54.30
2019-03-08T09:00:25.568Z,54.20
2019-03-08T09:01:54.802Z,54.50
2019-03-08T09:03:31.743Z,54.30
2019-03-08T09:04:55.387Z,54.50
2019-03-08T09:06:20.489Z,54.50
2019-03-08T09:07:52.897Z,54.30
2019-03-08T09:09:13.201Z,54.40
2019-03-08T09:10:51.604Z,54.50
2019-03-08T09:12:04.906Z,54.60
2019-03-08T09:13:23.783Z,54.80
2019-03-08T09:14:35.634Z,54.70
2019-03-08T09:16:02.057Z,54.60
2019-03-08T09:17:24.206Z,54.50
2019-03-08T09:19:08.362Z,54.50
2019-03-08T09:20:53.299Z,54.30
2019-03-08T09:22:20.592Z,54.00
2019-03-08T09:23:46.685Z,53.90
2019-03-08T09:25:22.051Z,53.60
2019-03-08T09:27:06.830Z,53.50
2019-03-08T09:28:38.917Z,53.30
2019-03-08T09:30:05.063Z,53.50
2019-03-08T09:31:38.618Z,53.60
2019-03-08T09:33:00.023Z,53.20
2019-03-08T09:34:14.162Z,53.50
2019-03-08T09:35:33.433Z,53.40
2019-03-08T09:36:54.721Z,53.40
2019-03-08T09:38:20.828Z,53.30
2019-03-08T09:39:46.002Z,53.40
2019-03-08T09:41:10.925Z,53.30
2019-03-08T09:42:35.960Z,53.20
2019-03-08T09:44:01.391Z,53.20
2019-03-08T09:45:39.297Z,53.20
2019-03-08T09:47:02.001Z,53.00
2019-03-08T09:48:48.265Z,53.20
2019-03-08T09:50:08.025Z,52.90
2019-03-08T09:51:34.071Z,53.20
2019-03-08T09:52:50.981Z,53.20
2019-03-08T09:54:07.162Z,53.10
2019-03-08T09:55:32.081Z,53.00
2019-03-08T09:56:58.669Z,52.80
2019-03-08T09:58:18.842Z,52.90
2019-03-08T09:59:34.482Z,53.10
2019-03-08T10:01:16.356Z,53.00
2019-03-08T10:02:27.553Z,52.60
2019-03-08T10:03:57.173Z,52.70
2019-03-08T10:05:22.392Z,52.60
2019-03-08T10:06:47.558Z,52.60
2019-03-08T10:08:04.547Z,52.60
2019-03-08T10:09:29.841Z,52.00
2019-03-08T10:11:05.170Z,51.90
2019-03-08T10:12:31.420Z,52.30
2019-03-08T10:13:48.201Z,51.50
2019-03-08T10:15:17.468Z,51.30
2019-03-08T10:16:33.053Z,51.50
2019-03-08T10:18:11.638Z,51.40
2019-03-08T10:19:37.577Z,51.20
2019-03-08T10:21:07.131Z,49.90
2019-03-08T10:22:32.982Z,49.70
2019-03-08T10:23:59.044Z,49.60
2019-03-08T10:25:38.159Z,49.90
2019-03-08T10:27:07.031Z,49.90
2019-03-08T10:28:27.300Z,50.20
2019-03-08T10:29:40.220Z,49.80
2019-03-08T10:30:55.162Z,49.70
2019-03-08T10:32:37.317Z,49.20
2019-03-08T10:34:07.375Z,49.20
2019-03-08T10:35:32.700Z,48.90
2019-03-08T10:37:00.418Z,48.70
2019-03-08T10:38:25.123Z,48.70
2019-03-08T10:39:41.188Z,49.40
2019-03-08T10:41:02.801Z,49.00
2019-03-08T10:42:21.726Z,48.70
2019-03-08T10:43:36.839Z,48.70
2019-03-08T10:44:59.578Z,48.70
2019-03-08T10:46:25.652Z,48.70
2019-03-08T10:47:56.241Z,48.20
2019-03-08T10:49:31.661Z,48.70
2019-03-08T10:50:46.381Z,48.70
2019-03-08T10:52:18.010Z,48.80
2019-03-08T10:53:44.174Z,48.90
2019-03-08T10:55:08.520Z,49.00
2019-03-08T10:56:46.308Z,48.80
2019-03-08T10:58:11.454Z,48.80
2019-03-08T10:59:27.182Z,48.90
2019-03-08T11:00:46.643Z,49.00
2019-03-08T11:02:12.710Z,48.80
2019-03-08T11:03:37.156Z,49.00
2019-03-08T11:05:06.514Z,48.80
2019-03-08T11:06:30.940Z,48.80
2019-03-08T11:07:46.806Z,48.40
2019-03-08T11:09:10.861Z,48.50
2019-03-08T11:10:27.236Z,48.50
2019-03-08T11:12:03.026Z,48.40
2019-03-08T11:13:31.890Z,48.20
2019-03-08T11:14:51.953Z,48.50
2019-03-08T11:16:07.732Z,48.40
2019-03-08T11:17:24.236Z,48.20
2019-03-08T11:18:47.495Z,48.10
2019-03-08T11:20:16.567Z,48.00
2019-03-08T11:21:46.418Z,48.00
2019-03-08T11:23:15.553Z,48.20
2019-03-08T11:24:47.332Z,48.50
2019-03-08T11:26:21.961Z,48.50
2019-03-08T11:27:46.684Z,48.40
2019-03-08T11:29:24.943Z,48.80
2019-03-08T11:30:53.918Z,48.70
2019-03-08T11:32:22.763Z,48.80
2019-03-08T11:34:01.506Z,48.70
2019-03-08T11:35:34.352Z,48.50
2019-03-08T11:36:54.342Z,48.50
2019-03-08T11:38:19.345Z,48.30
2019-03-08T11:39:37.880Z,48.30
2019-03-08T11:41:02.985Z,48.10
2019-03-08T11:42:18.960Z,47.80
2019-03-08T11:43:54.215Z,47.90
2019-03-08T11:45:26.193Z,47.90
2019-03-08T11:46:42.754Z,48.30
2019-03-08T11:47:59.740Z,47.80
2019-03-08T11:49:42.562Z,47.80
2019-03-08T11:51:05.691Z,47.70
2019-03-08T11:52:34.875Z,47.50
2019-03-08T11:54:06.777Z,47.70
2019-03-08T11:55:35.907Z,47.30
2019-03-08T11:57:01.952Z,47.10
2019-03-08T11:58:31.429Z,47.10
2019-03-08T11:59:53.462Z,47.00
2019-03-08T12:01:10.371Z,47.20
2019-03-08T12:02:39.448Z,47.90
2019-03-08T12:04:02.924Z,47.10
2019-03-08T12:05:17.146Z,46.90
2019-03-08T12:06:34.949Z,46.80
2019-03-08T12:08:04.138Z,47.00
2019-03-08T12:09:39.658Z,46.80
2019-03-08T12:11:13.199Z,46.80
2019-03-08T12:12:48.387Z,46.80
2019-03-08T12:14:16.413Z,46.80
2019-03-08T12:15:36.360Z,46.80
2019-03-08T12:17:01.426Z,46.80
2019-03-08T12:18:30.396Z,46.60
2019-03-08T12:19:46.943Z,46.70
2019-03-08T12:21:13.011Z,46.70
2019-03-08T12:22:51.556Z,46.70
2019-03-08T12:24:20.387Z,46.80
2019-03-08T12:25:42.681Z,47.00
2019-03-08T12:27:07.609Z,47.10
2019-03-08T12:28:27.846Z,47.30
2019-03-08T12:29:58.541Z,47.30
2019-03-08T12:31:23.571Z,47.20
2019-03-08T12:32:55.550Z,47.30
2019-03-08T12:34:18.667Z,47.40
2019-03-08T12:35:41.199Z,47.50
2019-03-08T12:37:13.252Z,47.50
2019-03-08T12:38:38.179Z,47.50
2019-03-08T12:39:59.546Z,47.60
2019-03-08T12:41:41.008Z,47.60
2019-03-08T12:43:08.388Z,47.70
2019-03-08T12:44:19.351Z,47.80
2019-03-08T12:45:54.398Z,47.50
2019-03-08T12:47:29.409Z,47.60
2019-03-08T12:48:51.741Z,47.30
2019-03-08T12:50:16.816Z,47.70
2019-03-08T12:51:43.031Z,47.70
2019-03-08T12:53:21.421Z,47.80
2019-03-08T12:54:50.531Z,48.40
2019-03-08T12:56:19.364Z,47.80
2019-03-08T12:57:57.359Z,48.00
2019-03-08T12:59:13.084Z,47.90
2019-03-08T13:00:30.624Z,47.90
2019-03-08T13:02:05.660Z,48.00
2019-03-08T13:03:26.112Z,48.00
2019-03-08T13:04:55.507Z,48.20
2019-03-08T13:06:27.499Z,48.20
2019-03-08T13:07:42.827Z,48.30
2019-03-08T13:09:06.289Z,48.30
2019-03-08T13:10:15.376Z,48.30
2019-03-08T13:11:22.925Z,48.50
2019-03-08T13:12:30.310Z,48.50
2019-03-08T13:13:37.753Z,48.50
2019-03-08T13:14:44.960Z,48.60
2019-03-08T13:15:53.121Z,48.70
2019-03-08T13:17:00.345Z,48.80
2019-03-08T13:18:07.510Z,49.00
2019-03-08T13:19:14.686Z,49.10
2019-03-08T13:20:21.866Z,49.20
2019-03-08T13:21:29.090Z,49.70
2019-03-08T13:22:37.349Z,50.30
2019-03-08T13:23:44.506Z,50.40
2019-03-08T13:24:51.657Z,50.80
2019-03-08T13:25:58.929Z,51.10
2019-03-08T13:27:06.108Z,51.10
2019-03-08T13:28:13.280Z,51.20
2019-03-08T13:29:20.456Z,51.40
2019-03-08T13:30:31.558Z,51.70
2019-03-08T13:31:41.901Z,51.80
2019-03-08T13:32:49.122Z,52.00
2019-03-08T13:33:56.301Z,52.10
2019-03-08T13:35:03.885Z,52.20
2019-03-08T13:36:11.045Z,52.30
2019-03-08T13:37:18.228Z,52.40
2019-03-08T13:38:25.430Z,52.40
2019-03-08T13:39:32.603Z,52.20
2019-03-08T13:40:39.774Z,51.90
2019-03-08T13:41:46.945Z,52.10
2019-03-08T13:42:54.107Z,52.30
2019-03-08T13:44:01.665Z,52.30
2019-03-08T13:45:12.560Z,52.00
2019-03-08T13:46:19.739Z,51.70
2019-03-08T13:47:26.828Z,51.60
2019-03-08T13:48:33.998Z,51.20
2019-03-08T13:49:41.152Z,51.00
2019-03-08T13:50:48.334Z,50.80
2019-03-08T13:51:55.491Z,50.70
2019-03-08T13:53:02.649Z,50.60
2019-03-08T13:54:10.877Z,50.50
2019-03-08T13:55:18.401Z,50.00
2019-03-08T13:56:25.637Z,50.00
2019-03-08T13:57:32.800Z,49.80
2019-03-08T13:58:39.957Z,50.10
2019-03-08T13:59:47.119Z,50.20
2019-03-08T14:00:54.287Z,50.20
2019-03-08T14:02:01.447Z,50.20
2019-03-08T14:03:10.539Z,50.30
2019-03-08T14:04:17.472Z,50.00
2019-03-08T14:05:24.700Z,50.10
2019-03-08T14:06:31.924Z,49.90
2019-03-08T14:07:39.083Z,49.90
2019-03-08T14:08:46.269Z,50.50
2019-03-08T14:09:53.434Z,49.70
2019-03-08T14:11:00.795Z,49.50
2019-03-08T14:12:09.289Z,49.30
2019-03-08T14:13:16.453Z,49.20
2019-03-08T14:14:23.642Z,49.10
2019-03-08T14:15:30.819Z,49.20
2019-03-08T14:16:38.007Z,49.50
2019-03-08T14:17:45.472Z,49.60
2019-03-08T14:18:52.961Z,49.80
2019-03-08T14:20:00.425Z,49.70
2019-03-08T14:21:09.047Z,49.90
2019-03-08T14:22:16.566Z,50.40
2019-03-08T14:23:23.900Z,51.00
2019-03-08T14:24:31.361Z,51.50
2019-03-08T14:25:38.817Z,52.00
2019-03-08T14:26:45.975Z,52.40
2019-03-08T14:27:53.133Z,53.00
2019-03-08T14:29:00.312Z,53.20
2019-03-08T14:30:08.178Z,53.40
2019-03-08T14:31:19.662Z,53.50
2019-03-08T14:32:27.876Z,53.50
2019-03-08T14:33:38.183Z,53.70
2019-03-08T14:34:43.953Z,54.00
2019-03-08T14:35:51.110Z,54.10
2019-03-08T14:37:00.092Z,54.50
2019-03-08T14:38:07.882Z,54.60
2019-03-08T14:39:15.201Z,55.70
2019-03-08T14:40:43.195Z,56.10
2019-03-08T14:41:56.370Z,56.30
2019-03-08T14:43:13.167Z,56.20
2019-03-08T14:44:39.298Z,56.60
2019-03-08T14:45:54.797Z,56.70
2019-03-08T14:47:09.657Z,57.00
2019-03-08T14:48:16.806Z,57.20
2019-03-08T14:49:24.966Z,57.50
2019-03-08T14:50:35.611Z,57.90
2019-03-08T14:51:41.108Z,58.10
2019-03-08T14:52:48.386Z,58.60
2019-03-08T14:53:55.562Z,59.00
2019-03-08T14:55:02.736Z,59.30
2019-03-08T14:56:09.937Z,59.90
2019-03-08T14:57:26.873Z,59.90
2019-03-08T14:58:26.145Z,61.00
2019-03-08T14:59:33.296Z,60.60
2019-03-08T15:00:40.503Z,60.50
2019-03-08T15:01:47.837Z,60.60
2019-03-08T15:02:54.987Z,60.60
2019-03-08T15:04:02.202Z,61.00
2019-03-08T15:05:11.617Z,60.20
2019-03-08T15:06:19.477Z,60.20
2019-03-08T15:07:26.780Z,60.30
2019-03-08T15:08:33.936Z,60.30
2019-03-08T15:09:41.107Z,60.50
2019-03-08T15:10:51.181Z,59.80
2019-03-08T15:11:59.530Z,59.80
2019-03-08T15:13:06.184Z,59.90
2019-03-08T15:14:13.373Z,59.50
2019-03-08T15:15:20.544Z,59.40
2019-03-08T15:16:28.884Z,59.30
2019-03-08T15:17:36.000Z,59.20
2019-03-08T15:18:43.185Z,59.30
2019-03-08T15:19:50.451Z,58.90
2019-03-08T15:20:58.553Z,58.90
2019-03-08T15:22:06.589Z,58.90
2019-03-08T15:23:17.138Z,58.80
2019-03-08T15:24:22.692Z,58.70
2019-03-08T15:25:31.443Z,59.30
2019-03-08T15:26:38.726Z,59.00
2019-03-08T15:27:45.977Z,59.20
2019-03-08T15:28:53.075Z,59.20
2019-03-08T15:30:00.354Z,59.20
2019-03-08T15:31:07.644Z,59.20
2019-03-08T15:32:14.853Z,59.00
2019-03-08T15:33:22.012Z,58.90
2019-03-08T15:34:29.240Z,58.90
2019-03-08T15:35:36.363Z,58.70
2019-03-08T15:36:43.598Z,58.70
2019-03-08T15:37:50.749Z,58.70
2019-03-08T15:38:58.827Z,58.70
2019-03-08T15:40:11.371Z,58.60
2019-03-08T15:41:21.441Z,58.70
2019-03-08T15:42:27.436Z,58.80
2019-03-08T15:43:34.625Z,59.10
2019-03-08T15:44:41.897Z,59.10
2019-03-08T15:45:49.087Z,59.10